sensor_id;sensor_type;location;lat;lon;timestamp;P1;durP1;ratioP1;P2;durP2;ratioP2
9409;SDS011;4744;52.576;13.568;2023-04-01T00:01:02;3.65;;;3.03;;
9409;SDS011;4744;52.576;13.568;2023-04-01T00:03:30;3.00;;;2.80;;
9409;SDS011;4744;52.576;13.568;2023-04-01T00:05:59;2.97;;;2.78;;
9409;SDS011;4744;52.576;13.568;2023-04-01T00:08:26;3.25;;;2.95;;
9409;SDS011;4744;52.576;13.568;2023-04-01T00:10:54;3.45;;;2.70;;
9409;SDS011;4744;52.576;13.568;2023-04-01T00:13:23;4.45;;;2.60;;
9409;SDS011;4744;52.576;13.568;2023-04-01T00:15:51;2.88;;;2.67;;
9409;SDS011;4744;52.576;13.568;2023-04-01T00:18:19;3.08;;;2.53;;
9409;SDS011;4744;52.576;13.568;2023-04-01T00:20:46;2.92;;;2.72;;
9409;SDS011;4744;52.576;13.568;2023-04-01T00:23:15;2.58;;;2.38;;
9409;SDS011;4744;52.576;13.568;2023-04-01T00:25:43;2.83;;;2.60;;
9409;SDS011;4744;52.576;13.568;2023-04-01T00:28:10;2.78;;;2.40;;
9409;SDS011;4744;52.576;13.568;2023-04-01T00:30:38;3.65;;;2.63;;
9409;SDS011;4744;52.576;13.568;2023-04-01T00:33:05;2.80;;;2.60;;
9409;SDS011;4744;52.576;13.568;2023-04-01T00:35:32;2.80;;;2.60;;
9409;SDS011;4744;52.576;13.568;2023-04-01T00:37:59;2.78;;;2.45;;
9409;SDS011;4744;52.576;13.568;2023-04-01T00:40:27;2.75;;;2.55;;
9409;SDS011;4744;52.576;13.568;2023-04-01T00:42:56;3.85;;;2.70;;
9409;SDS011;4744;52.576;13.568;2023-04-01T00:45:29;3.10;;;2.65;;
9409;SDS011;4744;52.576;13.568;2023-04-01T00:47:59;2.70;;;2.50;;
9409;SDS011;4744;52.576;13.568;2023-04-01T00:50:28;2.40;;;2.30;;
9409;SDS011;4744;52.576;13.568;2023-04-01T00:52:57;2.40;;;2.30;;
9409;SDS011;4744;52.576;13.568;2023-04-01T00:55:25;2.78;;;2.58;;
9409;SDS011;4744;52.576;13.568;2023-04-01T00:57:53;3.17;;;2.67;;
9409;SDS011;4744;52.576;13.568;2023-04-01T01:00:23;3.33;;;3.00;;
9409;SDS011;4744;52.576;13.568;2023-04-01T01:02:51;3.03;;;2.75;;
9409;SDS011;4744;52.576;13.568;2023-04-01T01:05:20;2.92;;;2.60;;
9409;SDS011;4744;52.576;13.568;2023-04-01T01:07:59;2.90;;;2.70;;
9409;SDS011;4744;52.576;13.568;2023-04-01T01:10:31;3.28;;;3.00;;
9409;SDS011;4744;52.576;13.568;2023-04-01T01:13:03;2.95;;;2.60;;
9409;SDS011;4744;52.576;13.568;2023-04-01T01:15:36;3.47;;;3.17;;
9409;SDS011;4744;52.576;13.568;2023-04-01T01:18:09;3.13;;;2.90;;
9409;SDS011;4744;52.576;13.568;2023-04-01T01:20:52;3.78;;;3.47;;
9409;SDS011;4744;52.576;13.568;2023-04-01T01:23:48;3.42;;;3.22;;
9409;SDS011;4744;52.576;13.568;2023-04-01T01:26:54;3.78;;;3.47;;
9409;SDS011;4744;52.576;13.568;2023-04-01T01:29:36;3.90;;;3.53;;
9409;SDS011;4744;52.576;13.568;2023-04-01T01:32:30;3.58;;;3.28;;
9409;SDS011;4744;52.576;13.568;2023-04-01T01:35:24;3.90;;;3.50;;
9409;SDS011;4744;52.576;13.568;2023-04-01T01:37:55;3.58;;;3.35;;
9409;SDS011;4744;52.576;13.568;2023-04-01T01:40:26;3.85;;;3.55;;
9409;SDS011;4744;52.576;13.568;2023-04-01T01:42:54;3.58;;;3.28;;
9409;SDS011;4744;52.576;13.568;2023-04-01T01:45:26;3.58;;;3.28;;
9409;SDS011;4744;52.576;13.568;2023-04-01T01:47:55;4.18;;;3.88;;
9409;SDS011;4744;52.576;13.568;2023-04-01T01:50:25;4.05;;;3.75;;
9409;SDS011;4744;52.576;13.568;2023-04-01T01:52:59;3.85;;;3.03;;
9409;SDS011;4744;52.576;13.568;2023-04-01T01:55:28;3.67;;;3.38;;
9409;SDS011;4744;52.576;13.568;2023-04-01T01:57:56;3.70;;;3.40;;
9409;SDS011;4744;52.576;13.568;2023-04-01T02:00:25;4.20;;;3.78;;
9409;SDS011;4744;52.576;13.568;2023-04-01T02:02:53;3.40;;;3.13;;
9409;SDS011;4744;52.576;13.568;2023-04-01T02:05:21;4.68;;;4.13;;
9409;SDS011;4744;52.576;13.568;2023-04-01T02:07:54;3.80;;;3.50;;
9409;SDS011;4744;52.576;13.568;2023-04-01T02:10:26;3.47;;;3.20;;
9409;SDS011;4744;52.576;13.568;2023-04-01T02:12:57;3.35;;;3.10;;
9409;SDS011;4744;52.576;13.568;2023-04-01T02:15:28;3.53;;;3.22;;
9409;SDS011;4744;52.576;13.568;2023-04-01T02:18:00;3.70;;;3.33;;
9409;SDS011;4744;52.576;13.568;2023-04-01T02:20:29;3.67;;;3.17;;
9409;SDS011;4744;52.576;13.568;2023-04-01T02:22:57;3.53;;;3.22;;
9409;SDS011;4744;52.576;13.568;2023-04-01T02:25:27;3.33;;;3.00;;
9409;SDS011;4744;52.576;13.568;2023-04-01T02:27:55;3.22;;;2.92;;
9409;SDS011;4744;52.576;13.568;2023-04-01T02:30:24;2.92;;;2.72;;
9409;SDS011;4744;52.576;13.568;2023-04-01T02:32:52;3.83;;;3.53;;
9409;SDS011;4744;52.576;13.568;2023-04-01T02:35:21;2.80;;;2.60;;
9409;SDS011;4744;52.576;13.568;2023-04-01T02:37:50;3.15;;;2.75;;
9409;SDS011;4744;52.576;13.568;2023-04-01T02:40:19;3.13;;;2.83;;
9409;SDS011;4744;52.576;13.568;2023-04-01T02:42:46;3.45;;;3.03;;
9409;SDS011;4744;52.576;13.568;2023-04-01T02:45:13;3.38;;;3.08;;
9409;SDS011;4744;52.576;13.568;2023-04-01T02:47:40;3.22;;;2.95;;
9409;SDS011;4744;52.576;13.568;2023-04-01T02:50:07;3.05;;;2.85;;
9409;SDS011;4744;52.576;13.568;2023-04-01T02:52:35;3.13;;;2.92;;
9409;SDS011;4744;52.576;13.568;2023-04-01T02:55:04;3.38;;;3.08;;
9409;SDS011;4744;52.576;13.568;2023-04-01T02:57:31;3.78;;;3.13;;
9409;SDS011;4744;52.576;13.568;2023-04-01T02:59:58;2.95;;;2.75;;
9409;SDS011;4744;52.576;13.568;2023-04-01T03:02:25;3.72;;;2.78;;
9409;SDS011;4744;52.576;13.568;2023-04-01T03:04:52;3.03;;;2.83;;
9409;SDS011;4744;52.576;13.568;2023-04-01T03:07:19;2.92;;;2.70;;
9409;SDS011;4744;52.576;13.568;2023-04-01T03:09:46;2.70;;;2.60;;
9409;SDS011;4744;52.576;13.568;2023-04-01T03:12:14;2.70;;;2.50;;
9409;SDS011;4744;52.576;13.568;2023-04-01T03:14:41;3.80;;;3.33;;
9409;SDS011;4744;52.576;13.568;2023-04-01T03:17:08;3.58;;;3.20;;
9409;SDS011;4744;52.576;13.568;2023-04-01T03:19:35;3.38;;;3.08;;
9409;SDS011;4744;52.576;13.568;2023-04-01T03:22:02;3.60;;;3.30;;
9409;SDS011;4744;52.576;13.568;2023-04-01T03:24:29;3.35;;;3.05;;
9409;SDS011;4744;52.576;13.568;2023-04-01T03:26:55;3.33;;;3.05;;
9409;SDS011;4744;52.576;13.568;2023-04-01T03:29:24;3.20;;;2.88;;
9409;SDS011;4744;52.576;13.568;2023-04-01T03:31:51;3.10;;;2.90;;
9409;SDS011;4744;52.576;13.568;2023-04-01T03:34:18;3.17;;;2.88;;
9409;SDS011;4744;52.576;13.568;2023-04-01T03:36:44;3.28;;;2.95;;
9409;SDS011;4744;52.576;13.568;2023-04-01T03:39:11;3.53;;;2.90;;
9409;SDS011;4744;52.576;13.568;2023-04-01T03:41:38;3.65;;;3.35;;
9409;SDS011;4744;52.576;13.568;2023-04-01T03:44:05;3.40;;;3.10;;
9409;SDS011;4744;52.576;13.568;2023-04-01T03:46:33;3.85;;;3.38;;
9409;SDS011;4744;52.576;13.568;2023-04-01T03:49:00;3.58;;;3.28;;
9409;SDS011;4744;52.576;13.568;2023-04-01T03:51:28;3.35;;;3.15;;
9409;SDS011;4744;52.576;13.568;2023-04-01T03:53:55;3.58;;;3.03;;
9409;SDS011;4744;52.576;13.568;2023-04-01T03:56:22;4.05;;;3.72;;
9409;SDS011;4744;52.576;13.568;2023-04-01T03:58:48;4.20;;;3.75;;
9409;SDS011;4744;52.576;13.568;2023-04-01T04:01:16;3.30;;;3.00;;
9409;SDS011;4744;52.576;13.568;2023-04-01T04:03:47;3.58;;;3.28;;
9409;SDS011;4744;52.576;13.568;2023-04-01T04:06:15;5.07;;;3.83;;
9409;SDS011;4744;52.576;13.568;2023-04-01T04:08:43;3.70;;;3.40;;
9409;SDS011;4744;52.576;13.568;2023-04-01T04:11:10;4.38;;;3.40;;
9409;SDS011;4744;52.576;13.568;2023-04-01T04:13:37;3.75;;;3.42;;
9409;SDS011;4744;52.576;13.568;2023-04-01T04:16:04;3.35;;;3.13;;
9409;SDS011;4744;52.576;13.568;2023-04-01T04:18:32;3.50;;;3.15;;
9409;SDS011;4744;52.576;13.568;2023-04-01T04:21:00;4.20;;;3.80;;
9409;SDS011;4744;52.576;13.568;2023-04-01T04:23:27;3.83;;;3.30;;
9409;SDS011;4744;52.576;13.568;2023-04-01T04:25:56;4.28;;;3.83;;
9409;SDS011;4744;52.576;13.568;2023-04-01T04:28:24;4.38;;;3.97;;
9409;SDS011;4744;52.576;13.568;2023-04-01T04:30:52;4.38;;;3.97;;
9409;SDS011;4744;52.576;13.568;2023-04-01T04:33:19;4.40;;;4.00;;
9409;SDS011;4744;52.576;13.568;2023-04-01T04:35:46;4.32;;;3.95;;
9409;SDS011;4744;52.576;13.568;2023-04-01T04:38:15;4.75;;;4.35;;
9409;SDS011;4744;52.576;13.568;2023-04-01T04:40:42;4.63;;;4.22;;
9409;SDS011;4744;52.576;13.568;2023-04-01T04:43:10;4.80;;;4.40;;
9409;SDS011;4744;52.576;13.568;2023-04-01T04:45:37;4.88;;;4.47;;
9409;SDS011;4744;52.576;13.568;2023-04-01T04:48:05;5.07;;;4.60;;
9409;SDS011;4744;52.576;13.568;2023-04-01T04:50:33;5.00;;;4.60;;
9409;SDS011;4744;52.576;13.568;2023-04-01T04:53:00;5.18;;;4.68;;
9409;SDS011;4744;52.576;13.568;2023-04-01T04:55:29;4.30;;;3.90;;
9409;SDS011;4744;52.576;13.568;2023-04-01T04:57:55;6.60;;;5.20;;
9409;SDS011;4744;52.576;13.568;2023-04-01T05:00:22;5.32;;;4.82;;
9409;SDS011;4744;52.576;13.568;2023-04-01T05:02:49;5.95;;;5.35;;
9409;SDS011;4744;52.576;13.568;2023-04-01T05:05:16;5.43;;;5.03;;
9409;SDS011;4744;52.576;13.568;2023-04-01T05:07:43;6.82;;;6.10;;
9409;SDS011;4744;52.576;13.568;2023-04-01T05:10:10;6.97;;;6.25;;
9409;SDS011;4744;52.576;13.568;2023-04-01T05:12:38;6.88;;;6.15;;
9409;SDS011;4744;52.576;13.568;2023-04-01T05:15:06;6.65;;;5.82;;
9409;SDS011;4744;52.576;13.568;2023-04-01T05:17:33;6.75;;;6.05;;
9409;SDS011;4744;52.576;13.568;2023-04-01T05:20:01;6.82;;;6.13;;
9409;SDS011;4744;52.576;13.568;2023-04-01T05:22:28;7.15;;;6.45;;
9409;SDS011;4744;52.576;13.568;2023-04-01T05:24:55;6.07;;;5.47;;
9409;SDS011;4744;52.576;13.568;2023-04-01T05:27:22;6.28;;;5.68;;
9409;SDS011;4744;52.576;13.568;2023-04-01T05:29:50;7.13;;;6.30;;
9409;SDS011;4744;52.576;13.568;2023-04-01T05:32:17;7.80;;;5.65;;
9409;SDS011;4744;52.576;13.568;2023-04-01T05:34:44;6.78;;;6.05;;
9409;SDS011;4744;52.576;13.568;2023-04-01T05:37:11;6.00;;;5.40;;
9409;SDS011;4744;52.576;13.568;2023-04-01T05:39:38;5.70;;;5.10;;
9409;SDS011;4744;52.576;13.568;2023-04-01T05:42:05;6.38;;;5.72;;
9409;SDS011;4744;52.576;13.568;2023-04-01T05:44:33;6.05;;;5.53;;
9409;SDS011;4744;52.576;13.568;2023-04-01T05:47:01;6.55;;;5.80;;
9409;SDS011;4744;52.576;13.568;2023-04-01T05:49:28;6.88;;;5.72;;
9409;SDS011;4744;52.576;13.568;2023-04-01T05:51:55;5.60;;;5.10;;
9409;SDS011;4744;52.576;13.568;2023-04-01T05:54:23;5.55;;;5.03;;
9409;SDS011;4744;52.576;13.568;2023-04-01T05:56:50;5.60;;;5.10;;
9409;SDS011;4744;52.576;13.568;2023-04-01T05:59:17;6.63;;;5.80;;
9409;SDS011;4744;52.576;13.568;2023-04-01T06:01:43;6.80;;;5.97;;
9409;SDS011;4744;52.576;13.568;2023-04-01T06:04:14;7.47;;;5.78;;
9409;SDS011;4744;52.576;13.568;2023-04-01T06:06:42;5.93;;;5.32;;
9409;SDS011;4744;52.576;13.568;2023-04-01T06:09:12;5.93;;;5.25;;
9409;SDS011;4744;52.576;13.568;2023-04-01T06:11:44;5.85;;;5.35;;
9409;SDS011;4744;52.576;13.568;2023-04-01T06:14:22;6.20;;;5.60;;
9409;SDS011;4744;52.576;13.568;2023-04-01T06:17:00;6.00;;;5.40;;
9409;SDS011;4744;52.576;13.568;2023-04-01T06:19:41;6.35;;;5.75;;
9409;SDS011;4744;52.576;13.568;2023-04-01T06:22:17;6.75;;;5.97;;
9409;SDS011;4744;52.576;13.568;2023-04-01T06:25:21;6.07;;;5.47;;
9409;SDS011;4744;52.576;13.568;2023-04-01T06:28:16;7.13;;;5.82;;
9409;SDS011;4744;52.576;13.568;2023-04-01T06:31:05;5.90;;;5.30;;
9409;SDS011;4744;52.576;13.568;2023-04-01T06:33:45;6.18;;;5.57;;
9409;SDS011;4744;52.576;13.568;2023-04-01T06:36:36;5.82;;;5.22;;
9409;SDS011;4744;52.576;13.568;2023-04-01T06:39:18;6.18;;;5.57;;
9409;SDS011;4744;52.576;13.568;2023-04-01T06:42:06;6.40;;;5.78;;
9409;SDS011;4744;52.576;13.568;2023-04-01T06:44:53;6.57;;;5.88;;
9409;SDS011;4744;52.576;13.568;2023-04-01T06:47:32;6.18;;;5.20;;
9409;SDS011;4744;52.576;13.568;2023-04-01T06:50:09;6.90;;;6.30;;
9409;SDS011;4744;52.576;13.568;2023-04-01T06:52:48;8.30;;;6.35;;
9409;SDS011;4744;52.576;13.568;2023-04-01T06:55:26;6.43;;;5.82;;
9409;SDS011;4744;52.576;13.568;2023-04-01T06:58:00;6.53;;;5.90;;
9409;SDS011;4744;52.576;13.568;2023-04-01T07:00:32;6.35;;;5.75;;
9409;SDS011;4744;52.576;13.568;2023-04-01T07:03:04;7.18;;;5.93;;
9409;SDS011;4744;52.576;13.568;2023-04-01T07:05:36;9.45;;;8.00;;
9409;SDS011;4744;52.576;13.568;2023-04-01T07:08:08;7.97;;;7.18;;
9409;SDS011;4744;52.576;13.568;2023-04-01T07:10:40;8.13;;;6.75;;
9409;SDS011;4744;52.576;13.568;2023-04-01T07:13:12;8.77;;;7.88;;
9409;SDS011;4744;52.576;13.568;2023-04-01T07:15:43;7.78;;;6.88;;
9409;SDS011;4744;52.576;13.568;2023-04-01T07:18:22;6.72;;;6.13;;
9409;SDS011;4744;52.576;13.568;2023-04-01T07:20:56;7.85;;;7.05;;
9409;SDS011;4744;52.576;13.568;2023-04-01T07:23:27;9.27;;;7.38;;
9409;SDS011;4744;52.576;13.568;2023-04-01T07:25:58;8.65;;;7.32;;
9409;SDS011;4744;52.576;13.568;2023-04-01T07:28:28;5.30;;;4.80;;
9409;SDS011;4744;52.576;13.568;2023-04-01T07:31:01;5.28;;;4.78;;
9409;SDS011;4744;52.576;13.568;2023-04-01T07:33:35;5.50;;;5.00;;
9409;SDS011;4744;52.576;13.568;2023-04-01T07:36:08;6.80;;;6.03;;
9409;SDS011;4744;52.576;13.568;2023-04-01T07:38:45;7.40;;;6.60;;
9409;SDS011;4744;52.576;13.568;2023-04-01T07:41:26;10.38;;;8.30;;
9409;SDS011;4744;52.576;13.568;2023-04-01T07:44:06;11.77;;;9.38;;
9409;SDS011;4744;52.576;13.568;2023-04-01T07:46:46;11.15;;;9.32;;
9409;SDS011;4744;52.576;13.568;2023-04-01T07:49:21;12.38;;;9.82;;
9409;SDS011;4744;52.576;13.568;2023-04-01T07:51:56;13.98;;;10.48;;
9409;SDS011;4744;52.576;13.568;2023-04-01T07:54:29;16.58;;;10.68;;
9409;SDS011;4744;52.576;13.568;2023-04-01T07:57:05;14.82;;;11.27;;
9409;SDS011;4744;52.576;13.568;2023-04-01T07:59:39;14.25;;;10.55;;
9409;SDS011;4744;52.576;13.568;2023-04-01T08:02:15;15.40;;;11.07;;
9409;SDS011;4744;52.576;13.568;2023-04-01T08:04:56;10.90;;;9.70;;
9409;SDS011;4744;52.576;13.568;2023-04-01T08:07:31;11.88;;;10.13;;
9409;SDS011;4744;52.576;13.568;2023-04-01T08:10:10;13.57;;;10.93;;
9409;SDS011;4744;52.576;13.568;2023-04-01T08:12:46;13.60;;;11.85;;
9409;SDS011;4744;52.576;13.568;2023-04-01T08:15:21;13.57;;;11.57;;
9409;SDS011;4744;52.576;13.568;2023-04-01T08:18:02;11.95;;;10.60;;
9409;SDS011;4744;52.576;13.568;2023-04-01T08:20:37;12.68;;;10.80;;
9409;SDS011;4744;52.576;13.568;2023-04-01T08:23:11;11.27;;;10.07;;
9409;SDS011;4744;52.576;13.568;2023-04-01T08:25:42;10.52;;;9.38;;
9409;SDS011;4744;52.576;13.568;2023-04-01T08:28:16;11.35;;;10.25;;
9409;SDS011;4744;52.576;13.568;2023-04-01T08:30:48;11.70;;;10.18;;
9409;SDS011;4744;52.576;13.568;2023-04-01T08:33:19;10.40;;;9.40;;
9409;SDS011;4744;52.576;13.568;2023-04-01T08:35:51;11.63;;;10.43;;
9409;SDS011;4744;52.576;13.568;2023-04-01T08:38:23;11.55;;;10.10;;
9409;SDS011;4744;52.576;13.568;2023-04-01T08:41:01;12.68;;;11.25;;
9409;SDS011;4744;52.576;13.568;2023-04-01T08:44:01;12.18;;;10.88;;
9409;SDS011;4744;52.576;13.568;2023-04-01T08:47:07;12.43;;;10.63;;
9409;SDS011;4744;52.576;13.568;2023-04-01T08:49:56;12.48;;;11.18;;
9409;SDS011;4744;52.576;13.568;2023-04-01T08:52:37;11.77;;;10.63;;
9409;SDS011;4744;52.576;13.568;2023-04-01T09:01:23;13.05;;;11.75;;
9409;SDS011;4744;52.576;13.568;2023-04-01T09:06:57;13.65;;;12.35;;
9409;SDS011;4744;52.576;13.568;2023-04-01T09:09:45;14.63;;;13.15;;
9409;SDS011;4744;52.576;13.568;2023-04-01T09:12:49;14.80;;;13.40;;
9409;SDS011;4744;52.576;13.568;2023-04-01T09:15:42;14.20;;;12.85;;
9409;SDS011;4744;52.576;13.568;2023-04-01T09:18:34;12.98;;;11.80;;
9409;SDS011;4744;52.576;13.568;2023-04-01T09:21:15;14.32;;;13.02;;
9409;SDS011;4744;52.576;13.568;2023-04-01T09:27:31;13.13;;;11.98;;
9409;SDS011;4744;52.576;13.568;2023-04-01T09:36:13;12.57;;;11.27;;
9409;SDS011;4744;52.576;13.568;2023-04-01T09:38:56;10.52;;;9.60;;
9409;SDS011;4744;52.576;13.568;2023-04-01T09:41:27;10.43;;;9.52;;
9409;SDS011;4744;52.576;13.568;2023-04-01T09:44:00;11.10;;;9.93;;
9409;SDS011;4744;52.576;13.568;2023-04-01T09:46:37;11.10;;;10.10;;
9409;SDS011;4744;52.576;13.568;2023-04-01T09:52:18;11.35;;;10.38;;
9409;SDS011;4744;52.576;13.568;2023-04-01T09:54:57;10.68;;;9.77;;
9409;SDS011;4744;52.576;13.568;2023-04-01T09:57:48;10.55;;;9.65;;
9409;SDS011;4744;52.576;13.568;2023-04-01T10:00:55;9.70;;;8.90;;
9409;SDS011;4744;52.576;13.568;2023-04-01T10:04:08;11.13;;;10.13;;
9409;SDS011;4744;52.576;13.568;2023-04-01T10:13:34;13.38;;;12.18;;
9409;SDS011;4744;52.576;13.568;2023-04-01T10:25:57;7.93;;;7.22;;
9409;SDS011;4744;52.576;13.568;2023-04-01T10:41:07;5.05;;;4.63;;
9409;SDS011;4744;52.576;13.568;2023-04-01T10:44:08;4.47;;;4.18;;
9409;SDS011;4744;52.576;13.568;2023-04-01T10:47:16;3.88;;;3.58;;
9409;SDS011;4744;52.576;13.568;2023-04-01T10:50:13;4.60;;;4.30;;
9409;SDS011;4744;52.576;13.568;2023-04-01T10:56:11;3.90;;;3.60;;
9409;SDS011;4744;52.576;13.568;2023-04-01T11:02:12;4.50;;;4.10;;
9409;SDS011;4744;52.576;13.568;2023-04-01T11:08:13;3.70;;;3.40;;
9409;SDS011;4744;52.576;13.568;2023-04-01T11:14:31;3.38;;;3.10;;
9409;SDS011;4744;52.576;13.568;2023-04-01T11:17:42;3.30;;;3.10;;
9409;SDS011;4744;52.576;13.568;2023-04-01T11:20:41;3.55;;;3.28;;
9409;SDS011;4744;52.576;13.568;2023-04-01T11:23:43;3.63;;;3.33;;
9409;SDS011;4744;52.576;13.568;2023-04-01T11:26:32;3.92;;;3.63;;
9409;SDS011;4744;52.576;13.568;2023-04-01T11:32:17;3.65;;;3.40;;
9409;SDS011;4744;52.576;13.568;2023-04-01T11:34:56;3.80;;;3.50;;
9409;SDS011;4744;52.576;13.568;2023-04-01T11:37:35;4.00;;;3.70;;
9409;SDS011;4744;52.576;13.568;2023-04-01T11:40:14;4.57;;;4.18;;
9409;SDS011;4744;52.576;13.568;2023-04-01T11:42:52;4.15;;;3.85;;
9409;SDS011;4744;52.576;13.568;2023-04-01T11:45:27;5.15;;;4.75;;
9409;SDS011;4744;52.576;13.568;2023-04-01T11:50:57;5.00;;;4.60;;
9409;SDS011;4744;52.576;13.568;2023-04-01T11:53:44;4.82;;;4.40;;
9409;SDS011;4744;52.576;13.568;2023-04-01T11:56:24;4.55;;;4.22;;
9409;SDS011;4744;52.576;13.568;2023-04-01T11:59:09;4.60;;;4.20;;
9409;SDS011;4744;52.576;13.568;2023-04-01T12:01:57;5.10;;;4.60;;
9409;SDS011;4744;52.576;13.568;2023-04-01T12:04:42;5.38;;;4.95;;
9409;SDS011;4744;52.576;13.568;2023-04-01T12:07:43;6.30;;;4.90;;
9409;SDS011;4744;52.576;13.568;2023-04-01T12:10:20;5.90;;;5.50;;
9409;SDS011;4744;52.576;13.568;2023-04-01T12:12:57;6.18;;;5.68;;
9409;SDS011;4744;52.576;13.568;2023-04-01T12:15:30;6.07;;;5.57;;
9409;SDS011;4744;52.576;13.568;2023-04-01T12:18:05;6.22;;;5.72;;
9409;SDS011;4744;52.576;13.568;2023-04-01T12:20:49;7.63;;;6.90;;
9409;SDS011;4744;52.576;13.568;2023-04-01T12:23:32;6.85;;;6.32;;
9409;SDS011;4744;52.576;13.568;2023-04-01T12:29:27;6.15;;;5.55;;
9409;SDS011;4744;52.576;13.568;2023-04-01T12:32:17;5.82;;;5.32;;
9409;SDS011;4744;52.576;13.568;2023-04-01T12:34:57;6.40;;;5.72;;
9409;SDS011;4744;52.576;13.568;2023-04-01T12:37:40;7.13;;;6.30;;
9409;SDS011;4744;52.576;13.568;2023-04-01T12:43:16;7.82;;;7.22;;
9409;SDS011;4744;52.576;13.568;2023-04-01T12:46:11;7.18;;;6.57;;
9409;SDS011;4744;52.576;13.568;2023-04-01T12:48:51;7.70;;;7.10;;
9409;SDS011;4744;52.576;13.568;2023-04-01T12:57:32;8.48;;;7.68;;
9409;SDS011;4744;52.576;13.568;2023-04-01T13:00:32;6.88;;;6.28;;
9409;SDS011;4744;52.576;13.568;2023-04-01T13:03:21;6.97;;;6.38;;
9409;SDS011;4744;52.576;13.568;2023-04-01T13:08:57;8.45;;;7.78;;
9409;SDS011;4744;52.576;13.568;2023-04-01T13:11:35;8.35;;;7.65;;
9409;SDS011;4744;52.576;13.568;2023-04-01T13:17:09;7.25;;;6.65;;
9409;SDS011;4744;52.576;13.568;2023-04-01T13:19:45;7.80;;;7.15;;
9409;SDS011;4744;52.576;13.568;2023-04-01T13:22:17;7.93;;;7.22;;
9409;SDS011;4744;52.576;13.568;2023-04-01T13:24:50;8.15;;;7.45;;
9409;SDS011;4744;52.576;13.568;2023-04-01T13:27:24;9.25;;;8.48;;
9409;SDS011;4744;52.576;13.568;2023-04-01T13:30:00;8.27;;;7.57;;
9409;SDS011;4744;52.576;13.568;2023-04-01T13:32:36;7.70;;;7.10;;
9409;SDS011;4744;52.576;13.568;2023-04-01T13:35:26;7.95;;;7.25;;
9409;SDS011;4744;52.576;13.568;2023-04-01T13:38:06;7.53;;;6.93;;
9409;SDS011;4744;52.576;13.568;2023-04-01T13:41:05;8.27;;;7.57;;
9409;SDS011;4744;52.576;13.568;2023-04-01T13:43:42;8.57;;;7.88;;
9409;SDS011;4744;52.576;13.568;2023-04-01T13:46:22;8.45;;;7.70;;
9409;SDS011;4744;52.576;13.568;2023-04-01T13:49:19;8.30;;;7.57;;
9409;SDS011;4744;52.576;13.568;2023-04-01T13:52:18;8.52;;;7.82;;
9409;SDS011;4744;52.576;13.568;2023-04-01T13:55:19;8.23;;;7.43;;
9409;SDS011;4744;52.576;13.568;2023-04-01T13:57:57;7.97;;;7.35;;
9409;SDS011;4744;52.576;13.568;2023-04-01T14:00:46;8.60;;;7.90;;
9409;SDS011;4744;52.576;13.568;2023-04-01T14:03:27;7.60;;;6.95;;
9409;SDS011;4744;52.576;13.568;2023-04-01T14:06:15;7.03;;;6.43;;
9409;SDS011;4744;52.576;13.568;2023-04-01T14:08:58;8.07;;;7.22;;
9409;SDS011;4744;52.576;13.568;2023-04-01T14:11:43;8.15;;;7.45;;
9409;SDS011;4744;52.576;13.568;2023-04-01T14:14:18;8.48;;;7.75;;
9409;SDS011;4744;52.576;13.568;2023-04-01T14:17:07;7.05;;;6.45;;
9409;SDS011;4744;52.576;13.568;2023-04-01T14:19:50;7.55;;;6.95;;
9409;SDS011;4744;52.576;13.568;2023-04-01T14:22:29;7.38;;;6.72;;
9409;SDS011;4744;52.576;13.568;2023-04-01T14:27:59;7.28;;;6.57;;
9409;SDS011;4744;52.576;13.568;2023-04-01T14:30:40;6.95;;;6.35;;
9409;SDS011;4744;52.576;13.568;2023-04-01T14:33:21;6.70;;;6.10;;
9409;SDS011;4744;52.576;13.568;2023-04-01T14:35:58;6.05;;;5.60;;
9409;SDS011;4744;52.576;13.568;2023-04-01T14:38:52;5.78;;;5.30;;
9409;SDS011;4744;52.576;13.568;2023-04-01T14:41:30;6.57;;;6.05;;
9409;SDS011;4744;52.576;13.568;2023-04-01T14:47:24;6.25;;;5.75;;
9409;SDS011;4744;52.576;13.568;2023-04-01T14:50:09;6.70;;;6.10;;
9409;SDS011;4744;52.576;13.568;2023-04-01T14:52:40;6.25;;;5.75;;
9409;SDS011;4744;52.576;13.568;2023-04-01T14:55:25;6.90;;;6.30;;
9409;SDS011;4744;52.576;13.568;2023-04-01T14:58:10;6.35;;;5.85;;
9409;SDS011;4744;52.576;13.568;2023-04-01T15:00:44;13.77;;;11.73;;
9409;SDS011;4744;52.576;13.568;2023-04-01T15:03:17;13.10;;;9.63;;
9409;SDS011;4744;52.576;13.568;2023-04-01T15:05:49;10.40;;;8.73;;
9409;SDS011;4744;52.576;13.568;2023-04-01T15:08:21;10.52;;;8.40;;
9409;SDS011;4744;52.576;13.568;2023-04-01T15:16:56;6.03;;;5.40;;
9409;SDS011;4744;52.576;13.568;2023-04-01T15:19:38;5.85;;;5.35;;
9409;SDS011;4744;52.576;13.568;2023-04-01T15:25:15;7.00;;;5.82;;
9409;SDS011;4744;52.576;13.568;2023-04-01T15:27:54;5.35;;;4.95;;
9409;SDS011;4744;52.576;13.568;2023-04-01T15:30:29;8.10;;;4.88;;
9409;SDS011;4744;52.576;13.568;2023-04-01T15:33:06;5.13;;;4.57;;
9409;SDS011;4744;52.576;13.568;2023-04-01T15:35:49;4.80;;;4.35;;
9409;SDS011;4744;52.576;13.568;2023-04-01T15:38:27;5.03;;;4.63;;
9409;SDS011;4744;52.576;13.568;2023-04-01T15:41:02;5.57;;;5.07;;
9409;SDS011;4744;52.576;13.568;2023-04-01T15:43:40;5.63;;;5.13;;
9409;SDS011;4744;52.576;13.568;2023-04-01T15:46:14;5.72;;;5.22;;
9409;SDS011;4744;52.576;13.568;2023-04-01T15:49:22;6.32;;;5.72;;
9409;SDS011;4744;52.576;13.568;2023-04-01T15:52:03;5.97;;;5.47;;
9409;SDS011;4744;52.576;13.568;2023-04-01T15:57:40;6.00;;;5.40;;
9409;SDS011;4744;52.576;13.568;2023-04-01T16:00:25;5.95;;;5.35;;
9409;SDS011;4744;52.576;13.568;2023-04-01T16:03:15;5.38;;;4.88;;
9409;SDS011;4744;52.576;13.568;2023-04-01T16:05:51;5.68;;;5.22;;
9409;SDS011;4744;52.576;13.568;2023-04-01T16:08:41;5.32;;;4.82;;
9409;SDS011;4744;52.576;13.568;2023-04-01T16:11:19;5.35;;;4.85;;
9409;SDS011;4744;52.576;13.568;2023-04-01T16:13:55;5.00;;;4.60;;
9409;SDS011;4744;52.576;13.568;2023-04-01T16:16:36;5.10;;;4.70;;
9409;SDS011;4744;52.576;13.568;2023-04-01T16:19:26;5.00;;;4.60;;
9409;SDS011;4744;52.576;13.568;2023-04-01T16:22:05;5.43;;;4.90;;
9409;SDS011;4744;52.576;13.568;2023-04-01T16:24:35;5.88;;;5.25;;
9409;SDS011;4744;52.576;13.568;2023-04-01T16:27:09;5.25;;;4.85;;
9409;SDS011;4744;52.576;13.568;2023-04-01T16:29:42;5.60;;;5.20;;
9409;SDS011;4744;52.576;13.568;2023-04-01T16:32:16;5.22;;;4.78;;
9409;SDS011;4744;52.576;13.568;2023-04-01T16:34:57;5.28;;;4.65;;
9409;SDS011;4744;52.576;13.568;2023-04-01T16:37:38;4.95;;;4.55;;
9409;SDS011;4744;52.576;13.568;2023-04-01T16:40:15;4.75;;;4.35;;
9409;SDS011;4744;52.576;13.568;2023-04-01T16:42:51;5.00;;;4.50;;
9409;SDS011;4744;52.576;13.568;2023-04-01T16:45:23;4.65;;;4.35;;
9409;SDS011;4744;52.576;13.568;2023-04-01T16:48:00;5.38;;;4.60;;
9409;SDS011;4744;52.576;13.568;2023-04-01T16:50:42;5.60;;;4.75;;
9409;SDS011;4744;52.576;13.568;2023-04-01T16:53:17;4.47;;;4.15;;
9409;SDS011;4744;52.576;13.568;2023-04-01T16:55:49;4.95;;;4.53;;
9409;SDS011;4744;52.576;13.568;2023-04-01T16:58:21;5.25;;;4.75;;
9409;SDS011;4744;52.576;13.568;2023-04-01T17:00:53;5.55;;;5.00;;
9409;SDS011;4744;52.576;13.568;2023-04-01T17:03:28;5.30;;;4.80;;
9409;SDS011;4744;52.576;13.568;2023-04-01T17:06:19;5.72;;;4.93;;
9409;SDS011;4744;52.576;13.568;2023-04-01T17:09:04;5.50;;;5.00;;
9409;SDS011;4744;52.576;13.568;2023-04-01T17:11:46;5.35;;;4.80;;
9409;SDS011;4744;52.576;13.568;2023-04-01T17:14:23;4.63;;;4.20;;
9409;SDS011;4744;52.576;13.568;2023-04-01T17:17:09;5.07;;;4.63;;
9409;SDS011;4744;52.576;13.568;2023-04-01T17:19:51;4.90;;;4.60;;
9409;SDS011;4744;52.576;13.568;2023-04-01T17:22:33;5.80;;;4.60;;
9409;SDS011;4744;52.576;13.568;2023-04-01T17:25:11;5.40;;;5.00;;
9409;SDS011;4744;52.576;13.568;2023-04-01T17:27:48;5.05;;;4.65;;
9409;SDS011;4744;52.576;13.568;2023-04-01T17:30:25;5.85;;;4.93;;
9409;SDS011;4744;52.576;13.568;2023-04-01T17:33:05;4.95;;;4.45;;
9409;SDS011;4744;52.576;13.568;2023-04-01T17:35:58;4.97;;;4.57;;
9409;SDS011;4744;52.576;13.568;2023-04-01T17:41:28;4.88;;;4.45;;